• Join FlightAware (Why Join?)
  • Login
  • US Flag 
09:56PM EDT


 

Airport Tracker/Info


-or-


 

Live Flight TrackerFlight Track Log ✈ OPT429 ✈ 12-Jun-2014 ✈ KLGA - KGUY

Flight Track Log - Related Links

Times and Time Zones

All times are in EDT time to prevent confusion due to time zone crossing. See the OPT429 flight status page for this flight to view local times or setup timezone preferences in your user account.

Time Position Orientation Groundspeed Altitude Reporting Facility
EDT Latitude Longitude Course Direction KTS MPH feet Rate Location/Type
11:26AM 40.7333 -73.8167 270° West 207 238 2,600  Level New York TRACON
11:27AM 40.7500 -73.7500 72° East 269 310 4,600 2,460 Climbing New York TRACON
11:28AM 40.8167 -73.7833 339° North 279 321 7,600 3,000 Climbing New York TRACON
11:29AM 40.8500 -73.8500 303° West 231 266 10,400 2,880 Climbing New York TRACON
11:30AM 40.8667 -73.9333 285° West 225 259 13,100 2,100 Climbing New York TRACON
11:31AM 40.8667 -74.0167 270° West 258 297 14,600 960 Climbing New York TRACON
11:32AM 40.7834 -74.5991 270° West  Level FlightAware Approximate
11:32AM 40.8500 -74.1500 261° West 332 382 15,100  Level New York TRACON
11:33AM 40.8500 -74.2667 270° West 355 409 15,400 900 Climbing New York TRACON
11:34AM 40.8433 -74.3972 266° West 355 409 16,900 780 Climbing New York Center
11:35AM 40.8378 -74.5094 266° West 379 436 17,000  Climbing New York Center
11:36AM 40.8311 -74.6517 267° West 372 428 17,000  Level New York Center
11:37AM 40.8253 -74.7667 266° West 360 414 17,000 480 Level New York Center
11:38AM 40.8039 -74.8997 258° West 354 407 18,000 1,080 Climbing New York Center
11:39AM 40.7708 -75.0156 249° West 348 400 19,200 1,200 Climbing New York Center
11:40AM 40.7369 -75.1419 251° West 354 407 20,500 1,260 Climbing New York Center
11:41AM 40.7011 -75.2656 249° West 369 425 21,800 1,380 Climbing New York Center
11:42AM 40.6647 -75.3947 250° West 369 425 23,300 1,440 Climbing New York Center
11:43AM 40.6308 -75.5181 250° West 369 425 24,700 1,440 Climbing New York Center
11:44AM 40.5944 -75.6414 249° West 369 425 26,200 1,500 Climbing New York Center
11:45AM 40.5581 -75.7617 248° West 363 418 27,700 1,440 Climbing New York Center
11:46AM 40.5258 -75.8850 251° West 363 418 29,100 1,500 Climbing New York Center
11:47AM 40.4850 -76.0047 246° West 368 423 30,700 1,500 Climbing New York Center
11:48AM 40.4506 -76.1250 249° West 363 418 32,100 1,380 Climbing New York Center
11:49AM 40.4158 -76.2478 250° West 363 418 33,500 1,200 Climbing New York Center
11:50AM 40.3950 -76.3769 258° West 363 418 34,600 960 Climbing New York Center
11:51AM 40.3908 -76.5100 268° West 368 423 35,500 900 Climbing New York Center
11:52AM 40.3900 -76.6517 270° West 375 432 36,400 900 Climbing New York Center
11:53AM 40.3853 -76.7903 267° West 385 443 37,300 900 Climbing New York Center
11:54AM 40.3819 -76.9317 268° West 385 443 38,200 780 Climbing New York Center
11:55AM 40.3842 -77.0492 271° West 385 443 38,900 840 Climbing New York Center
11:56AM 40.3783 -77.1958 267° West 378 435 39,900 1,020 Climbing New York Center
11:58AM 40.3747 -77.4758 269° West 368 423 42,000 960 Climbing Cleveland Center
11:59AM 40.3706 -77.6011 268° West 354 407 42,900 480 Climbing Cleveland Center
12:00PM 40.3683 -77.7239 269° West 347 399 43,000  Climbing Cleveland Center
12:01PM 40.3650 -77.8492 268° West 344 396 43,000  Level Cleveland Center
12:02PM 40.3608 -77.9783 268° West 349 402 43,000  Level Cleveland Center
12:03PM 40.3567 -78.1367 268° West 355 409 43,000  Level Cleveland Center
12:04PM 40.3525 -78.2722 268° West 367 422 43,000  Level Cleveland Center
12:05PM 40.3475 -78.4106 267° West 374 430 43,000  Level Cleveland Center
12:06PM 40.3431 -78.5481 268° West 375 432 43,000  Level Cleveland Center
12:07PM 40.3381 -78.6881 267° West 381 438 43,000  Level Cleveland Center
12:08PM 40.3328 -78.8275 267° West 381 438 43,000  Level Cleveland Center
12:10PM 40.3267 -78.9958 267° West 383 441 43,000  Level Cleveland Center
12:11PM 40.3225 -79.1356 268° West 385 443 43,000  Level Cleveland Center
12:12PM 40.3172 -79.2783 267° West 388 447 43,000  Level Cleveland Center
12:13PM 40.3111 -79.4108 267° West 388 447 43,000  Level Cleveland Center
12:14PM 40.3056 -79.5522 267° West 388 447 43,000  Level Cleveland Center
12:15PM 40.2978 -79.7214 267° West 389 448 43,000  Level Cleveland Center
12:16PM 40.2911 -79.8633 267° West 389 448 43,000  Level Cleveland Center
12:17PM 40.2839 -80.0056 266° West 389 448 43,000  Level Cleveland Center
12:18PM 40.2761 -80.1500 266° West 389 448 43,000  Level Cleveland Center
12:19PM 40.2714 -80.2903 268° West 379 436 43,000  Level Cleveland Center
12:20PM 40.2653 -80.4253 267° West 370 426 43,000  Level Cleveland Center
12:21PM 40.2586 -80.5586 266° West 366 421 43,000  Level Cleveland Center
12:22PM 40.2514 -80.6933 266° West 367 422 43,000  Level Cleveland Center
12:23PM 40.2439 -80.8514 266° West 364 419 43,000  Level Cleveland Center
12:24PM 40.2356 -80.9858 265° West 370 426 43,000  Level Cleveland Center
12:25PM 40.2286 -81.1206 266° West 371 427 43,000  Level Cleveland Center
12:26PM 40.2211 -81.2564 266° West 372 428 43,000  Level Cleveland Center
12:27PM 40.2125 -81.3906 265° West 373 429 43,000  Level Cleveland Center
12:28PM 40.2042 -81.5306 266° West 384 442 43,000  Level Cleveland Center
12:29PM 40.1950 -81.6981 266° West 386 444 43,000  Level Cleveland Center
12:30PM 40.1864 -81.8244 265° West 387 445 43,000  Level Cleveland Center
12:31PM 40.1781 -81.9672 266° West 391 450 43,000  Level Indianapolis Center
12:32PM 40.1681 -82.1114 265° West 395 455 43,000  Level Indianapolis Center
12:33PM 40.1589 -82.2561 265° West 397 457 43,000  Level Indianapolis Center
12:34PM 40.1475 -82.4319 265° West 403 464 43,000  Level Indianapolis Center
12:35PM 40.1369 -82.5794 265° West 406 467 43,000  Level Indianapolis Center
12:36PM 40.1275 -82.7272 265° West 406 467 43,000  Level Indianapolis Center
12:37PM 40.1167 -82.8775 265° West 413 475 43,000  Level Indianapolis Center
12:38PM 40.1061 -83.0256 265° West 413 475 43,000  Level Indianapolis Center
12:39PM 40.0961 -83.1736 265° West 413 475 43,000  Level Indianapolis Center
12:40PM 40.0833 -83.3531 265° West 414 476 43,000  Level Indianapolis Center
12:41PM 40.0728 -83.5014 265° West 415 478 43,000  Level Indianapolis Center
12:42PM 40.0614 -83.6497 264° West 415 478 43,000  Level Indianapolis Center
12:44PM 40.0486 -83.7975 264° West 415 478 43,000  Level Indianapolis Center
12:45PM 40.0364 -83.9444 264° West 415 478 43,000  Level Indianapolis Center
12:46PM 40.0217 -84.1242 264° West 415 478 43,000  Level Indianapolis Center
12:47PM 40.0086 -84.2731 264° West 415 478 43,000  Level Indianapolis Center
12:48PM 39.9961 -84.4233 264° West 416 479 43,000  Level Indianapolis Center
12:49PM 39.9850 -84.5725 264° West 416 479 43,000  Level Indianapolis Center
12:50PM 39.9697 -84.7231 263° West 417 480 43,000  Level Indianapolis Center
12:51PM 39.9569 -84.8717 264° West 417 480 43,000  Level Indianapolis Center
12:52PM 39.9439 -85.0356 264° West 417 480 43,000  Level Indianapolis Center
12:53PM 39.9300 -85.1842 263° West 417 480 43,000  Level Indianapolis Center
12:54PM 39.9156 -85.3339 263° West 417 480 43,000  Level Indianapolis Center
12:55PM 39.8989 -85.5117 263° West 416 479 43,000  Level Indianapolis Center
12:56PM 39.8850 -85.6611 263° West 416 479 43,000  Level Indianapolis Center
12:57PM 39.8708 -85.8094 263° West 416 479 43,000  Level Indianapolis Center
12:58PM 39.8558 -85.9575 263° West 416 479 43,000  Level Indianapolis Center
12:59PM 39.8414 -86.1047 263° West 415 478 43,000  Level Indianapolis Center
01:00PM 39.8253 -86.2639 263° West 415 478 43,000  Level Indianapolis Center
01:01PM 39.8042 -86.4272 261° West 421 484 43,000  Level Indianapolis Center
01:02PM 39.7725 -86.5678 254° West 414 476 43,000  Level Indianapolis Center
01:03PM 39.7417 -86.7136 255° West 416 479 43,000  Level Indianapolis Center
01:04PM 39.7108 -86.8578 255° West 417 480 43,000  Level Indianapolis Center
01:05PM 39.6731 -87.0306 254° West 417 480 43,000  Level Indianapolis Center
01:06PM 39.6408 -87.1750 254° West 417 480 43,000  Level Indianapolis Center
01:07PM 39.6100 -87.3194 255° West 417 480 43,000  Level Indianapolis Center
01:08PM 39.5772 -87.4639 254° West 417 480 43,000  Level Indianapolis Center
01:09PM 39.5456 -87.6075 254° West 417 480 43,000  Level Indianapolis Center
01:10PM 39.5133 -87.7508 254° West 417 480 43,000  Level Indianapolis Center
01:11PM 39.4756 -87.9231 254° West 417 480 43,000  Level Indianapolis Center
01:12PM 39.4422 -88.0653 253° West 416 479 43,000  Level Indianapolis Center
01:13PM 39.4081 -88.2100 253° West 417 480 43,000  Level Indianapolis Center
01:14PM 39.3772 -88.3497 254° West 417 480 43,000  Level Indianapolis Center
01:15PM 39.3442 -88.4919 253° West 416 479 43,000  Level Indianapolis Center
01:17PM 39.3103 -88.6336 253° West 416 479 43,000  Level Indianapolis Center
01:18PM 39.2711 -88.8042 254° West 416 479 43,000  Level Indianapolis Center
01:19PM 39.2381 -88.9464 253° West 416 479 43,000  Level Indianapolis Center
01:20PM 39.2042 -89.0886 253° West 416 479 43,000  Level Indianapolis Center
01:21PM 39.1694 -89.2317 253° West 415 478 43,000  Level Indianapolis Center
01:22PM 39.1356 -89.3733 253° West 415 478 43,000  Level Indianapolis Center
01:23PM 39.1014 -89.5133 253° West 415 478 43,000  Level Indianapolis Center
01:24PM 39.0558 -89.7000 253° West 390 449 43,000  Level Kansas City Center
01:25PM 39.0231 -89.8306 252° West 386 444 43,000  Level Kansas City Center
01:26PM 38.9911 -89.9594 252° West 383 441 43,000  Level Kansas City Center
01:27PM 38.9567 -90.1008 253° West 383 441 43,000  Level Kansas City Center
01:28PM 38.9244 -90.2269 252° West 375 432 43,000  Level Kansas City Center
01:29PM 38.8919 -90.3583 252° West 379 436 43,000  Level Kansas City Center
01:30PM 38.8572 -90.4906 251° West 392 451 43,000  Level Kansas City Center
01:31PM 38.8061 -90.6406 246° West 384 442 43,000  Level Kansas City Center
01:32PM 38.7703 -90.7483 247° West 383 441 43,000  Level Kansas City Center
01:33PM 38.7272 -90.8750 246° West 385 443 43,000  Level Kansas City Center
01:34PM 38.6872 -91.0358 252° West 394 453 43,000  Level Kansas City Center
01:35PM 38.6736 -91.1761 263° West 399 459 43,000  Level Kansas City Center
01:36PM 38.6586 -91.3183 262° West 400 460 43,000  Level Kansas City Center
01:38PM 38.6414 -91.4789 262° West 402 463 43,000  Level Kansas City Center
01:39PM 38.6256 -91.6225 262° West 403 464 43,000  Level Kansas City Center
01:40PM 38.6100 -91.7656 262° West 404 465 43,000  Level Kansas City Center
01:41PM 38.5942 -91.9072 262° West 404 465 43,000  Level Kansas City Center
01:42PM 38.5775 -92.0486 261° West 404 465 43,000  Level Kansas City Center
01:43PM 38.5586 -92.2125 262° West 395 455 43,000  Level Kansas City Center
01:44PM 38.5433 -92.3461 262° West 387 445 43,000  Level Kansas City Center
01:45PM 38.5275 -92.4764 261° West 379 436 43,000  Level Kansas City Center
01:46PM 38.5125 -92.6086 262° West 378 435 43,000  Level Kansas City Center
01:47PM 38.4964 -92.7417 261° West 378 435 43,000  Level Kansas City Center
01:48PM 38.4803 -92.8733 261° West 378 435 43,000  Level Kansas City Center
01:49PM 38.4606 -93.0333 261° West 378 435 43,000  Level Kansas City Center
01:50PM 38.4444 -93.1653 261° West 378 435 43,000  Level Kansas City Center
01:51PM 38.4281 -93.2978 261° West 378 435 43,000  Level Kansas City Center
01:52PM 38.4092 -93.4308 260° West 378 435 43,000  Level Kansas City Center
01:53PM 38.3936 -93.5639 262° West 379 436 43,000  Level Kansas City Center
01:54PM 38.3761 -93.6964 260° West 379 436 43,000  Level Kansas City Center
01:55PM 38.3556 -93.8550 261° West 379 436 43,000  Level Kansas City Center
01:56PM 38.3375 -93.9872 260° West 379 436 43,000  Level Kansas City Center
01:57PM 38.3203 -94.1194 261° West 379 436 43,000  Level Kansas City Center
01:58PM 38.3053 -94.2511 262° West 379 436 43,000  Level Kansas City Center
01:59PM 38.2886 -94.3828 261° West 378 435 43,000  Level Kansas City Center
02:00PM 38.2694 -94.5136 259° West 378 435 43,000  Level Kansas City Center
02:01PM 38.2456 -94.6700 259° West 378 435 43,000  Level Kansas City Center
02:02PM 38.2231 -94.8011 258° West 379 436 43,000  Level Kansas City Center
02:03PM 38.2042 -94.9172 258° West 381 438 43,000  Level Kansas City Center
02:04PM 38.1803 -95.0719 259° West 372 428 43,000  Level Kansas City Center
02:05PM 38.1578 -95.2061 258° West 373 429 43,000  Level Kansas City Center
02:06PM 38.1336 -95.3425 257° West 377 434 43,000  Level Kansas City Center
02:07PM 38.1119 -95.4675 258° West 377 434 43,000  Level Kansas City Center
02:09PM 38.0889 -95.6033 258° West 377 434 43,000  Level Kansas City Center
02:10PM 38.0647 -95.7397 257° West 378 435 43,000  Level Kansas City Center
02:11PM 38.0417 -95.8756 258° West 378 435 43,000  Level Kansas City Center
02:12PM 38.0186 -96.0117 258° West 378 435 43,000  Level Kansas City Center
02:13PM 38.0017 -96.1211 259° West 375 432 43,000  Level Kansas City Center
02:14PM 37.9750 -96.2781 258° West 376 433 43,000  Level Kansas City Center
02:15PM 37.9536 -96.4069 258° West 376 433 43,000  Level Kansas City Center
02:16PM 37.9317 -96.5386 258° West 377 434 43,000  Level Kansas City Center
02:17PM 37.9094 -96.6686 258° West 377 434 43,000  Level Kansas City Center
02:18PM 37.8875 -96.7994 258° West 378 435 43,000  Level Kansas City Center
02:19PM 37.8636 -96.9292 257° West 378 435 43,000  Level Kansas City Center
02:20PM 37.8406 -97.0586 257° West 378 435 43,000  Level Kansas City Center
02:21PM 37.8122 -97.2167 257° West 381 438 43,000  Level Kansas City Center
02:22PM 37.7881 -97.3472 257° West 381 438 43,000  Level Kansas City Center
02:23PM 37.7639 -97.4800 257° West 384 442 43,000  Level Kansas City Center
02:24PM 37.7383 -97.6114 256° West 383 441 43,000  Level Kansas City Center
02:25PM 37.7044 -97.7400 252° West 383 441 43,000  Level Kansas City Center
02:26PM 37.6719 -97.8689 252° West 382 440 43,000  Level Kansas City Center
02:27PM 37.6394 -97.9983 252° West 382 440 43,000  Level Kansas City Center
02:28PM 37.6078 -98.1261 253° West 382 440 43,000  Level Kansas City Center
02:29PM 37.5675 -98.2800 252° West 382 440 43,000  Level Kansas City Center
02:30PM 37.5350 -98.4083 252° West 382 440 43,000  Level Kansas City Center
02:31PM 37.5025 -98.5356 252° West 382 440 43,000 -1,020 Level Kansas City Center
02:32PM 37.4694 -98.6633 252° West 382 440 41,000 -2,160 Descending Kansas City Center
02:33PM 37.4381 -98.7872 252° West 380 437 38,600 -2,340 Descending Kansas City Center
02:34PM 37.4047 -98.9036 250° West 362 417 36,100 -2,640 Descending Kansas City Center
02:35PM 37.3653 -99.0506 251° West 366 421 33,200 -2,640 Descending Kansas City Center
02:36PM 37.3314 -99.1778 252° West 379 436 30,700 -2,040 Descending Kansas City Center
02:37PM 37.2978 -99.3053 252° West 382 440 29,000 -840 Descending Kansas City Center
02:39PM 37.2647 -99.4283 251° West 378 435 29,000 -120 Level Kansas City Center
02:40PM 37.2308 -99.5581 252° West 382 440 28,800 -1,020 Descending Kansas City Center
02:41PM 37.1886 -99.7125 251° West 409 471 26,900 -1,740 Descending Kansas City Center
02:42PM 37.1508 -99.8503 251° West 427 491 25,200 -1,860 Descending Kansas City Center
02:43PM 37.1075 -100.0097 251° West 431 496 23,100 -1,980 Descending Kansas City Center
02:44PM 37.0714 -100.1378 251° West 417 480 21,200 -2,040 Descending Kansas City Center
02:45PM 37.0344 -100.2756 251° West 381 438 18,900 -1,980 Descending Kansas City Center
02:46PM 37.0008 -100.3975 251° West 385 443 17,200 -1,920 Descending Kansas City Center
02:47PM 36.9672 -100.5194 251° West 341 392 15,000 -2,040 Descending Kansas City Center
02:48PM 36.9386 -100.6211 251° West 331 381 13,000 -1,980 Descending Kansas City Center
02:49PM 36.9058 -100.7364 250° West 322 371 11,000 -1,620 Descending Kansas City Center
02:50PM 36.8772 -100.8356 250° West 320 368 9,700 -1,320 Descending Kansas City Center
02:51PM 36.8503 -100.9347 251° West 319 367 8,300 -1,440 Descending Kansas City Center
02:52PM 36.8208 -101.0394 251° West 304 350 6,800 -1,140 Descending Kansas City Center
02:53PM 36.7981 -101.1192 250° West 277 319 6,000 -720 Descending Kansas City Center
02:54PM 36.7703 -101.2119 250° West 262 302 5,300 -480 Descending Kansas City Center
02:55PM 36.7447 -101.2983 250° West 266 306 5,100 -120 Descending Kansas City Center
02:56PM 36.7197 -101.3961 252° West 267 307 5,100  Level Kansas City Center